Time;durP1;ratioP1;P1;durP2;ratioP2;P2;SDS_P1;SDS_P2;PMS_P1;PMS_P2;Temp;Humidity;BMP_temperature;BMP_pressure;BME280_temperature;BME280_humidity;BME280_pressure;Samples;Min_cycle;Max_cycle;Signal;HPM_P1;HPM_P2
2023/07/13 00:02:21;;;;;;;10.52;3.35;;;;;;;25.05;61.14;98915.19;4390690;32;33892;-83
2023/07/13 00:04:48;;;;;;;12.77;4.00;;;;;;;24.93;61.04;98916.69;4377705;32;34949;-85
2023/07/13 00:07:19;;;;;;;6.57;3.33;;;;;;;25.25;59.81;98914.22;4391245;32;33664;-85
2023/07/13 00:09:47;;;;;;;9.40;3.45;;;;;;;25.32;59.35;98907.66;4391501;32;32679;-84
2023/07/13 00:12:27;;;;;;;9.00;3.33;;;;;;;25.37;58.52;98895.00;4377477;32;33688;-85
2023/07/13 00:14:59;;;;;;;8.82;2.80;;;;;;;25.13;58.98;98891.81;4391148;32;35033;-86
2023/07/13 00:17:28;;;;;;;6.40;2.67;;;;;;;24.88;57.85;98886.84;4390295;32;34911;-84
2023/07/13 00:19:56;;;;;;;7.30;2.55;;;;;;;25.05;57.01;98874.56;4377583;32;33501;-84
2023/07/13 00:22:25;;;;;;;6.90;2.58;;;;;;;25.36;55.67;98861.44;4390983;32;33694;-84
2023/07/13 00:24:56;;;;;;;10.15;2.55;;;;;;;25.35;54.66;98848.28;4389756;32;34017;-84
2023/07/13 00:27:26;;;;;;;6.65;2.25;;;;;;;25.68;53.90;98843.81;4391104;32;33857;-85
2023/07/13 00:29:54;;;;;;;6.78;2.10;;;;;;;25.57;52.62;98827.59;4391128;32;33341;-85
2023/07/13 00:32:21;;;;;;;5.85;2.30;;;;;;;25.76;52.42;98816.84;4390661;32;34114;-84
2023/07/13 00:34:49;;;;;;;4.78;2.05;;;;;;;25.89;51.99;98806.44;4391089;32;34893;-84
2023/07/13 00:37:18;;;;;;;6.53;1.90;;;;;;;26.24;50.98;98812.41;4390467;32;33903;-85
2023/07/13 00:39:45;;;;;;;7.18;2.10;;;;;;;26.42;50.59;98810.50;4390812;32;33286;-85
2023/07/13 00:42:13;;;;;;;6.20;2.10;;;;;;;26.51;50.88;98817.97;4391021;32;34796;-84
2023/07/13 00:44:40;;;;;;;5.93;2.20;;;;;;;26.57;50.77;98808.78;4390980;32;34652;-83
2023/07/13 00:47:08;;;;;;;5.28;2.08;;;;;;;26.72;50.36;98805.22;4390443;32;34191;-84
2023/07/13 00:49:36;;;;;;;5.35;1.95;;;;;;;26.66;50.45;98794.94;4375991;32;33803;-84
2023/07/13 00:52:08;;;;;;;5.65;1.70;;;;;;;26.73;49.83;98795.44;4385539;32;33815;-85
2023/07/13 00:54:41;;;;;;;8.93;1.90;;;;;;;26.63;50.03;98788.03;4365163;32;34033;-85
2023/07/13 00:57:13;;;;;;;6.40;1.87;;;;;;;26.57;49.59;98788.38;4377295;32;33990;-85
2023/07/13 00:59:43;;;;;;;4.45;1.67;;;;;;;26.56;49.50;98789.31;4377174;32;34187;-84
2023/07/13 01:02:11;;;;;;;12.50;1.90;;;;;;;26.51;49.24;98788.72;4376835;32;33780;-84
2023/07/13 01:04:39;;;;;;;4.97;1.73;;;;;;;26.28;49.65;98787.38;4377578;32;34145;-83
2023/07/13 01:07:06;;;;;;;6.93;1.75;;;;;;;26.10;49.46;98776.00;4390617;32;34939;-83
2023/07/13 01:09:34;;;;;;;5.60;1.65;;;;;;;26.35;48.78;98779.91;4390996;32;32696;-85
2023/07/13 01:12:02;;;;;;;3.92;1.48;;;;;;;26.20;48.88;98763.88;4390738;32;34487;-85
2023/07/13 01:14:30;;;;;;;4.62;1.30;;;;;;;26.31;48.43;98765.94;4390717;32;33833;-83
2023/07/13 01:17:00;;;;;;;4.80;2.28;;;;;;;26.26;48.33;98768.00;4390422;32;33991;-85
2023/07/13 01:19:43;;;;;;;6.40;1.73;;;;;;;25.81;49.59;98774.13;4390442;32;34555;-83
2023/07/13 01:22:16;;;;;;;3.75;1.33;;;;;;;26.09;49.08;98774.28;4377244;32;33844;-85
2023/07/13 01:24:46;;;;;;;3.62;1.45;;;;;;;26.07;48.83;98778.84;4390956;32;33885;-84
2023/07/13 01:27:19;;;;;;;5.22;1.25;;;;;;;26.25;48.48;98770.75;4390693;32;33528;-85
2023/07/13 01:29:47;;;;;;;4.18;1.00;;;;;;;26.28;48.17;98771.41;4374467;32;34333;-84
2023/07/13 01:32:22;;;;;;;4.18;1.27;;;;;;;26.10;48.23;98760.06;4362152;32;33944;-84
2023/07/13 01:34:54;;;;;;;3.92;1.10;;;;;;;25.97;48.45;98772.31;4362357;32;34144;-85
2023/07/13 01:37:23;;;;;;;6.72;1.25;;;;;;;25.89;48.15;98756.81;4361768;32;33480;-85
2023/07/13 01:39:51;;;;;;;2.22;0.90;;;;;;;25.95;47.65;98753.81;4362351;32;33112;-84
2023/07/13 01:42:19;;;;;;;3.70;0.93;;;;;;;25.89;48.00;98748.84;4379783;32;33487;-83
2023/07/13 01:44:48;;;;;;;2.78;1.10;;;;;;;25.86;48.17;98749.00;4390263;32;34899;-84
2023/07/13 01:47:15;;;;;;;4.22;1.08;;;;;;;25.86;47.45;98742.84;4390733;32;34070;-84
2023/07/13 01:49:45;;;;;;;5.37;1.12;;;;;;;25.71;47.64;98740.06;4389815;32;33849;-85
2023/07/13 01:52:13;;;;;;;3.25;1.12;;;;;;;25.67;47.55;98743.84;4390650;32;34713;-85
2023/07/13 01:54:41;;;;;;;4.22;1.10;;;;;;;25.76;47.67;98741.63;4390522;32;33859;-84
2023/07/13 01:57:09;;;;;;;4.93;1.75;;;;;;;25.56;48.08;98738.28;4390275;32;34677;-85
2023/07/13 01:59:36;;;;;;;4.60;2.00;;;;;;;25.40;49.22;98746.22;4376807;32;33458;-85
2023/07/13 02:02:05;;;;;;;3.97;1.58;;;;;;;25.45;49.80;98746.81;4390360;32;33999;-85
2023/07/13 02:04:34;;;;;;;6.20;1.70;;;;;;;25.52;50.59;98741.19;4376840;32;33757;-85
2023/07/13 02:07:01;;;;;;;5.22;2.03;;;;;;;25.39;51.14;98730.41;4376616;32;34925;-85
2023/07/13 02:09:29;;;;;;;6.72;1.50;;;;;;;25.27;52.12;98749.63;4390700;32;33146;-85
2023/07/13 02:11:58;;;;;;;7.03;2.15;;;;;;;25.17;52.55;98755.44;4390202;32;33507;-85
2023/07/13 02:14:30;;;;;;;5.85;1.70;;;;;;;25.31;52.00;98760.00;4390219;32;34824;-82
2023/07/13 02:16:57;;;;;;;7.78;2.10;;;;;;;25.21;52.23;98751.66;4390403;32;34106;-84
2023/07/13 02:19:25;;;;;;;8.35;2.22;;;;;;;25.17;52.60;98744.81;4390386;32;34334;-84
2023/07/13 02:21:53;;;;;;;6.80;2.17;;;;;;;25.13;52.80;98747.72;4390218;32;33941;-82
2023/07/13 02:24:21;;;;;;;5.87;1.83;;;;;;;25.11;52.81;98747.78;4390361;32;34663;-84
2023/07/13 02:26:49;;;;;;;8.18;2.20;;;;;;;25.17;52.42;98746.62;4376448;32;34386;-85
2023/07/13 02:29:17;;;;;;;5.20;2.22;;;;;;;25.17;52.56;98733.34;4375890;32;33357;-84
2023/07/13 02:31:45;;;;;;;5.70;1.90;;;;;;;24.95;53.27;98749.50;4390480;32;34603;-85
2023/07/13 02:34:12;;;;;;;6.18;2.08;;;;;;;24.90;53.36;98759.50;4388937;32;33979;-84
2023/07/13 02:36:40;;;;;;;5.28;2.15;;;;;;;24.97;53.32;98760.91;4390387;32;33664;-84
2023/07/13 02:39:09;;;;;;;5.12;2.00;;;;;;;24.84;53.46;98758.03;4376632;32;33354;-84
2023/07/13 02:41:36;;;;;;;4.82;1.95;;;;;;;24.71;53.53;98736.59;4376464;32;33837;-84
2023/07/13 02:44:04;;;;;;;5.30;2.10;;;;;;;24.70;53.55;98744.63;4388673;32;34625;-83
2023/07/13 02:46:36;;;;;;;5.60;1.83;;;;;;;24.79;53.26;98765.38;4376327;32;33621;-84
2023/07/13 02:49:04;;;;;;;5.80;1.98;;;;;;;24.72;53.55;98769.28;4376455;32;33067;-85
2023/07/13 02:51:33;;;;;;;5.37;2.10;;;;;;;24.69;53.68;98769.41;4390067;32;34557;-84
2023/07/13 02:54:02;;;;;;;8.55;2.83;;;;;;;24.80;53.35;98766.22;4389947;32;33913;-85
2023/07/13 02:56:32;;;;;;;6.50;2.40;;;;;;;24.57;54.30;98765.59;4364284;32;33896;-83
2023/07/13 02:58:59;;;;;;;5.68;2.08;;;;;;;24.60;54.20;98760.16;4389628;32;33063;-85
2023/07/13 03:01:27;;;;;;;7.00;2.35;;;;;;;24.69;54.02;98766.78;4390481;32;33820;-84
2023/07/13 03:03:55;;;;;;;6.45;2.40;;;;;;;24.78;53.85;98778.72;4391567;32;34059;-85
2023/07/13 03:06:24;;;;;;;5.30;2.40;;;;;;;24.76;54.21;98806.13;4378333;32;34126;-84
2023/07/13 03:08:53;;;;;;;6.82;2.25;;;;;;;24.73;54.35;98801.00;4377879;32;32478;-84
2023/07/13 03:11:21;;;;;;;6.80;2.45;;;;;;;24.65;54.71;98805.81;4378148;32;34553;-84
2023/07/13 03:13:49;;;;;;;6.32;3.03;;;;;;;24.66;54.97;98810.22;4378045;32;34880;-83
2023/07/13 03:16:17;;;;;;;9.25;2.60;;;;;;;24.22;55.99;98813.22;4391662;32;34197;-84
2023/07/13 03:18:47;;;;;;;7.15;2.20;;;;;;;24.27;55.93;98805.91;4391861;32;33078;-83
2023/07/13 03:21:15;;;;;;;5.75;2.33;;;;;;;24.39;55.48;98811.56;4391844;32;34631;-84
2023/07/13 03:23:43;;;;;;;7.72;2.20;;;;;;;24.40;55.61;98797.41;4378056;32;34078;-84
2023/07/13 03:26:17;;;;;;;7.90;2.40;;;;;;;24.39;56.20;98795.66;4378217;32;34479;-85
2023/07/13 03:28:45;;;;;;;4.80;2.47;;;;;;;24.28;56.87;98797.03;4378038;32;33383;-85
2023/07/13 03:31:16;;;;;;;8.27;4.25;;;;;;;24.37;57.29;98793.06;4391232;32;35265;-85
2023/07/13 03:33:44;;;;;;;6.87;2.65;;;;;;;24.28;58.12;98797.03;4391885;32;33864;-85
2023/07/13 03:36:16;;;;;;;5.97;2.53;;;;;;;24.55;57.61;98798.41;4378240;32;34073;-84
2023/07/13 03:38:43;;;;;;;9.13;3.05;;;;;;;24.89;57.06;98802.84;4365511;32;33352;-84
2023/07/13 03:41:11;;;;;;;6.75;2.62;;;;;;;24.77;57.56;98801.69;4377397;32;33145;-83
2023/07/13 03:43:39;;;;;;;5.28;2.30;;;;;;;24.63;58.28;98810.38;4376414;32;33974;-83
2023/07/13 03:46:06;;;;;;;5.35;2.53;;;;;;;24.65;58.33;98808.47;4376448;32;33553;-85
2023/07/13 03:48:34;;;;;;;6.18;2.45;;;;;;;24.82;57.86;98810.28;4376831;32;32723;-84
2023/07/13 03:51:03;;;;;;;7.43;2.50;;;;;;;24.66;58.62;98812.87;4376682;32;34062;-85
2023/07/13 03:53:30;;;;;;;7.28;2.90;;;;;;;24.78;58.52;98813.19;4362905;32;33893;-84
2023/07/13 03:55:58;;;;;;;7.72;2.50;;;;;;;24.58;59.17;98819.47;4376558;32;33964;-83
2023/07/13 03:58:35;;;;;;;5.80;2.40;;;;;;;24.68;59.04;98812.78;4391392;32;33443;-84
2023/07/13 04:01:05;;;;;;;6.30;3.03;;;;;;;24.44;60.19;98817.53;4377624;32;34624;-85
2023/07/13 04:03:34;;;;;;;6.62;2.95;;;;;;;24.60;59.74;98821.13;4377608;32;33381;-84
2023/07/13 04:06:06;;;;;;;6.70;2.80;;;;;;;24.78;59.50;98835.25;4377532;32;34161;-85
2023/07/13 04:08:36;;;;;;;9.35;3.00;;;;;;;24.51;60.41;98850.75;4377702;32;34236;-84
2023/07/13 04:11:04;;;;;;;7.07;3.45;;;;;;;24.66;60.21;98871.19;4391207;32;34349;-85
2023/07/13 04:13:31;;;;;;;7.40;3.12;;;;;;;24.37;61.22;98869.91;4390277;32;34249;-85
2023/07/13 04:15:59;;;;;;;9.55;3.40;;;;;;;24.32;61.60;98874.59;4390077;32;34540;-85
2023/07/13 04:18:28;;;;;;;9.05;2.92;;;;;;;24.46;61.06;98865.97;4391063;32;33547;-84
2023/07/13 04:20:55;;;;;;;8.27;3.40;;;;;;;24.30;62.01;98862.34;4391195;32;34508;-84
2023/07/13 04:23:23;;;;;;;10.40;3.05;;;;;;;24.50;61.37;98884.31;4377484;32;34151;-85
2023/07/13 04:25:52;;;;;;;7.25;3.00;;;;;;;24.36;62.18;98886.75;4391097;32;33083;-83
2023/07/13 04:28:22;;;;;;;7.68;3.45;;;;;;;24.21;62.73;98896.28;4376840;32;32892;-85
2023/07/13 04:30:50;;;;;;;8.15;3.15;;;;;;;23.84;64.66;98905.06;4377553;32;34177;-85
2023/07/13 04:33:17;;;;;;;8.98;3.67;;;;;;;23.85;64.86;98914.72;4377147;32;33865;-84
2023/07/13 04:35:46;;;;;;;9.63;3.83;;;;;;;23.19;67.64;98916.75;4390854;32;33910;-85
2023/07/13 04:38:15;;;;;;;8.20;3.90;;;;;;;23.53;66.29;98919.66;4391066;32;33681;-84
2023/07/13 04:40:45;;;;;;;9.05;4.10;;;;;;;23.67;66.12;98940.22;4377370;32;34925;-84
2023/07/13 04:43:12;;;;;;;8.55;3.92;;;;;;;23.74;66.18;98946.09;4390597;32;34384;-84
2023/07/13 04:45:40;;;;;;;7.45;4.18;;;;;;;23.56;66.67;98945.09;4391054;32;33793;-84
2023/07/13 04:48:08;;;;;;;10.90;4.47;;;;;;;23.67;66.92;98949.94;4390880;32;34344;-84
2023/07/13 04:50:37;;;;;;;7.03;3.67;;;;;;;23.82;66.25;98953.72;4391028;32;34673;-83
2023/07/13 04:53:04;;;;;;;9.55;3.78;;;;;;;23.77;66.21;98970.66;4390989;32;33813;-83
2023/07/13 04:55:32;;;;;;;9.32;4.43;;;;;;;23.62;67.28;98981.88;4377085;32;34112;-82
2023/07/13 04:57:59;;;;;;;9.68;4.15;;;;;;;23.59;67.63;99003.19;4390567;32;34470;-82
2023/07/13 05:00:27;;;;;;;13.43;4.32;;;;;;;23.58;67.70;99024.44;4390221;32;34846;-82
2023/07/13 05:02:57;;;;;;;6.57;3.97;;;;;;;23.17;68.97;99062.25;4390217;32;34573;-83
2023/07/13 05:05:26;;;;;;;9.18;3.53;;;;;;;22.89;70.69;99078.31;4377282;32;34084;-83
2023/07/13 05:07:53;;;;;;;10.98;4.20;;;;;;;22.52;71.79;99116.69;4377435;32;33650;-83
2023/07/13 05:10:21;;;;;;;9.25;3.80;;;;;;;22.81;71.34;99134.13;4377575;32;33820;-83
2023/07/13 05:12:49;;;;;;;10.77;4.35;;;;;;;22.37;73.01;99148.09;4390479;32;35091;-84
2023/07/13 05:15:21;;;;;;;10.02;4.03;;;;;;;22.44;73.87;99157.53;4390772;32;33909;-84
2023/07/13 05:17:49;;;;;;;7.82;4.28;;;;;;;22.36;74.65;99154.31;4390692;32;33352;-80
2023/07/13 05:20:18;;;;;;;8.52;4.45;;;;;;;21.98;76.48;99151.19;4390621;32;35233;-83
2023/07/13 05:22:48;;;;;;;7.65;4.30;;;;;;;21.91;76.19;99149.66;4390595;32;34223;-84
2023/07/13 05:25:16;;;;;;;9.80;3.37;;;;;;;21.21;79.00;99164.16;4390741;32;34863;-82
2023/07/13 05:27:45;;;;;;;6.85;3.15;;;;;;;21.61;77.19;99160.31;4390779;32;33769;-82
2023/07/13 05:30:13;;;;;;;6.60;3.05;;;;;;;22.01;75.18;99165.16;4390541;32;33978;-83
2023/07/13 05:32:41;;;;;;;8.98;3.37;;;;;;;21.39;78.43;99152.22;4390648;32;33865;-82
2023/07/13 05:35:09;;;;;;;5.45;2.95;;;;;;;21.29;77.72;99130.53;4390214;32;35638;-78
2023/07/13 05:37:37;;;;;;;8.13;3.45;;;;;;;21.13;78.43;99131.87;4390638;32;33152;-82
2023/07/13 05:40:05;;;;;;;7.65;3.10;;;;;;;20.89;81.24;99118.53;4376095;32;33252;-83
2023/07/13 05:42:33;;;;;;;8.63;3.20;;;;;;;20.61;81.58;99097.44;4376275;32;34818;-82
2023/07/13 05:45:02;;;;;;;7.93;3.62;;;;;;;20.72;81.55;99097.12;4390627;32;33913;-83
2023/07/13 05:47:29;;;;;;;8.25;2.70;;;;;;;21.04;80.11;99080.31;4377198;32;33694;-83
2023/07/13 05:49:57;;;;;;;7.95;3.28;;;;;;;20.76;79.95;99069.78;4390606;32;33830;-82
2023/07/13 05:52:24;;;;;;;7.78;3.03;;;;;;;20.67;82.34;99056.87;4390125;32;34124;-84
2023/07/13 05:54:52;;;;;;;7.80;3.30;;;;;;;20.75;80.43;99064.53;4390397;32;33729;-81
2023/07/13 05:57:19;;;;;;;6.20;2.87;;;;;;;20.83;81.08;99066.03;4390636;32;33593;-83
2023/07/13 05:59:47;;;;;;;8.07;3.22;;;;;;;20.73;81.94;99069.88;4390494;32;34782;-81
2023/07/13 06:02:14;;;;;;;8.38;2.62;;;;;;;20.51;82.80;99059.09;4376954;32;34050;-82
2023/07/13 06:04:42;;;;;;;6.78;2.90;;;;;;;20.21;84.72;99002.87;4390188;32;35251;-82
2023/07/13 06:07:10;;;;;;;6.60;2.92;;;;;;;20.40;84.65;98927.72;4390251;32;33439;-82
2023/07/13 06:09:38;;;;;;;8.00;3.45;;;;;;;20.08;86.55;98796.25;4390516;32;34675;-85
2023/07/13 06:12:07;;;;;;;8.50;3.60;;;;;;;19.68;89.26;98729.09;4390281;32;34047;-84
2023/07/13 06:14:35;;;;;;;8.00;3.30;;;;;;;19.63;91.63;98715.25;4389631;32;34035;-85
2023/07/13 06:17:02;;;;;;;4.85;2.42;;;;;;;20.05;88.14;98738.47;4390612;32;33429;-85
2023/07/13 06:19:30;;;;;;;8.95;2.80;;;;;;;20.29;84.80;98753.44;4389981;32;34931;-83
2023/07/13 06:21:58;;;;;;;6.43;2.53;;;;;;;20.28;83.94;98751.72;4389924;32;34823;-87
2023/07/13 06:24:26;;;;;;;4.20;2.33;;;;;;;20.06;85.20;98713.84;4390005;32;34206;-84
2023/07/13 06:26:54;;;;;;;5.75;2.55;;;;;;;20.46;83.03;98696.72;4363924;32;33941;-83
2023/07/13 06:29:21;;;;;;;4.93;2.33;;;;;;;20.46;83.56;98675.66;4376250;32;32812;-83
2023/07/13 06:31:49;;;;;;;6.60;2.87;;;;;;;20.64;81.42;98680.28;4390383;32;33777;-85
2023/07/13 06:34:19;;;;;;;3.90;1.77;;;;;;;20.90;81.78;98700.44;4389934;32;34178;-83
2023/07/13 06:36:47;;;;;;;4.80;1.73;;;;;;;21.04;78.86;98661.25;4389556;32;33812;-85
2023/07/13 06:39:14;;;;;;;6.90;2.37;;;;;;;20.73;79.36;98674.72;4375985;32;33910;-85
2023/07/13 06:41:42;;;;;;;4.12;2.15;;;;;;;21.09;78.95;98680.38;4376353;32;34982;-85
2023/07/13 06:44:10;;;;;;;5.55;2.15;;;;;;;21.28;79.27;98677.03;4390127;32;33991;-85
2023/07/13 06:46:37;;;;;;;6.85;1.90;;;;;;;21.17;79.65;98676.59;4389564;32;33506;-85
2023/07/13 06:49:05;;;;;;;5.65;2.30;;;;;;;21.64;76.25;98690.63;4389662;32;33748;-85
2023/07/13 06:51:32;;;;;;;6.32;2.05;;;;;;;21.69;76.15;98691.28;4376279;32;34286;-82
2023/07/13 06:54:00;;;;;;;6.30;2.33;;;;;;;21.83;75.47;98694.22;4376135;32;34248;-85
2023/07/13 06:56:27;;;;;;;5.97;2.40;;;;;;;22.16;75.73;98698.19;4389659;32;33558;-84
2023/07/13 06:58:55;;;;;;;4.53;1.92;;;;;;;22.68;71.59;98725.03;4389840;32;33461;-84
2023/07/13 07:01:22;;;;;;;5.55;2.20;;;;;;;22.92;71.21;98736.34;4389625;32;34772;-84
2023/07/13 07:03:50;;;;;;;8.43;2.83;;;;;;;22.25;72.13;98738.28;4389413;32;34977;-85
2023/07/13 07:06:20;;;;;;;7.28;2.28;;;;;;;22.21;76.07;98712.94;4389763;32;34689;-84
2023/07/13 07:08:48;;;;;;;6.40;2.72;;;;;;;22.76;74.27;98804.84;4376166;32;33834;-85
2023/07/13 07:11:24;;;;;;;5.32;2.65;;;;;;;22.85;74.32;98890.84;4389579;32;34161;-84
2023/07/13 07:13:52;;;;;;;4.07;1.85;;;;;;;22.99;74.21;98899.06;4376154;32;34619;-85
2023/07/13 07:16:20;;;;;;;6.78;2.40;;;;;;;22.59;73.02;98919.19;4363164;32;32829;-83
2023/07/13 07:18:48;;;;;;;5.47;2.60;;;;;;;22.85;73.70;98943.69;4363533;32;33253;-85
2023/07/13 07:21:15;;;;;;;5.93;2.08;;;;;;;22.83;73.06;98949.03;4376217;32;34246;-84
2023/07/13 07:23:43;;;;;;;6.03;2.50;;;;;;;22.90;73.38;98932.00;4389222;32;34844;-83
2023/07/13 07:26:11;;;;;;;5.53;2.47;;;;;;;23.15;73.79;98928.38;4389466;32;33593;-85
2023/07/13 07:28:39;;;;;;;6.43;2.62;;;;;;;22.88;73.16;98935.63;4375939;32;34095;-85
2023/07/13 07:31:09;;;;;;;6.90;2.70;;;;;;;23.33;71.51;98939.94;4375847;32;34280;-84
2023/07/13 07:33:40;;;;;;;5.75;2.85;;;;;;;23.06;72.58;98946.31;4375536;32;33756;-82
2023/07/13 07:36:07;;;;;;;5.05;2.55;;;;;;;23.29;73.22;98955.09;4374667;32;33779;-84
2023/07/13 07:38:38;;;;;;;7.07;2.72;;;;;;;23.30;72.72;98952.38;4385049;32;33838;-85
2023/07/13 07:41:06;;;;;;;6.50;3.08;;;;;;;23.81;70.38;98960.78;4389745;32;34180;-83
2023/07/13 07:43:36;;;;;;;7.53;3.47;;;;;;;23.72;69.76;98951.47;4375937;32;34076;-83
2023/07/13 07:46:04;;;;;;;5.72;3.05;;;;;;;24.07;71.41;98958.78;4389208;32;33579;-85
2023/07/13 07:48:31;;;;;;;5.20;2.87;;;;;;;23.76;71.70;98963.66;4390533;32;34690;-84
2023/07/13 07:50:59;;;;;;;6.90;2.75;;;;;;;23.94;72.14;98971.69;4391215;32;33965;-82
2023/07/13 07:53:27;;;;;;;7.95;2.53;;;;;;;24.05;69.25;98969.41;4391180;32;33901;-86
2023/07/13 07:55:54;;;;;;;5.80;2.37;;;;;;;24.47;67.87;98965.75;4391144;32;33628;-83
2023/07/13 07:58:24;;;;;;;6.07;2.22;;;;;;;24.68;68.33;98979.78;4389996;32;34094;-83
2023/07/13 08:01:02;;;;;;;5.82;2.40;;;;;;;24.74;66.03;98963.59;4391368;32;34746;-85
2023/07/13 08:03:33;;;;;;;3.28;1.55;;;;;;;25.00;66.64;98980.84;4377857;32;33870;-82
2023/07/13 08:06:03;;;;;;;4.45;1.90;;;;;;;25.15;64.80;98971.31;4390845;32;33538;-83
2023/07/13 08:08:34;;;;;;;3.42;1.62;;;;;;;25.34;63.58;98968.59;4391221;32;33531;-83
2023/07/13 08:11:04;;;;;;;6.62;1.83;;;;;;;24.94;61.61;98970.56;4391100;32;33823;-84
2023/07/13 08:13:52;;;;;;;5.60;2.05;;;;;;;24.62;61.58;98970.31;4380172;32;33976;-85
2023/07/13 08:16:22;;;;;;;5.55;1.80;;;;;;;24.78;64.00;98970.47;4390922;32;33651;-84
2023/07/13 08:18:50;;;;;;;10.35;2.62;;;;;;;25.07;61.43;98979.63;4377499;32;33895;-83
2023/07/13 08:21:19;;;;;;;13.48;4.68;;;;;;;24.74;64.87;98980.34;4391067;32;33891;-85
2023/07/13 08:23:47;;;;;;;6.65;2.33;;;;;;;24.84;63.06;98964.00;4390921;32;34767;-81
2023/07/13 08:26:15;;;;;;;4.55;2.10;;;;;;;25.16;62.55;98976.56;4389917;32;33876;-81
2023/07/13 08:28:42;;;;;;;5.32;2.37;;;;;;;25.35;62.55;98967.69;4390588;32;33690;-81
2023/07/13 08:31:10;;;;;;;4.32;2.30;;;;;;;25.31;62.58;98974.09;4377260;32;33427;-83
2023/07/13 08:33:40;;;;;;;6.28;2.35;;;;;;;25.30;61.60;98961.72;4391188;32;33728;-82
2023/07/13 08:36:08;;;;;;;7.07;2.67;;;;;;;25.71;60.14;98956.94;4390927;32;33729;-86
2023/07/13 08:38:36;;;;;;;5.07;2.03;;;;;;;25.71;61.57;98960.44;4391053;32;34763;-82
2023/07/13 08:41:11;;;;;;;5.35;2.10;;;;;;;26.13;60.10;98964.44;4391072;32;35032;-82
2023/07/13 08:43:41;;;;;;;8.02;2.40;;;;;;;25.93;59.60;98967.31;4391017;32;34324;-83
2023/07/13 08:46:28;;;;;;;4.97;1.70;;;;;;;26.04;59.70;98964.97;4377336;32;33657;-83
2023/07/13 08:49:04;;;;;;;6.85;2.10;;;;;;;26.08;57.03;98970.97;4362178;32;34017;-85
2023/07/13 08:51:46;;;;;;;7.20;1.95;;;;;;;25.98;56.89;98975.91;4374536;32;35003;-84
2023/07/13 08:54:26;;;;;;;4.40;2.10;;;;;;;25.85;58.16;98978.34;4389479;32;34817;-81
2023/07/13 08:56:54;;;;;;;7.32;2.08;;;;;;;26.03;58.09;98965.91;4375819;32;33595;-85
2023/07/13 08:59:27;;;;;;;6.55;2.00;;;;;;;26.33;55.86;98963.38;4362204;32;34008;-85
2023/07/13 09:02:01;;;;;;;5.70;2.25;;;;;;;26.67;57.98;98959.75;4361984;32;34191;-87
2023/07/13 09:04:54;;;;;;;5.75;2.33;;;;;;;26.73;56.79;98961.19;4389001;32;34821;-85
2023/07/13 09:07:58;;;;;;;5.55;2.03;;;;;;;26.52;56.60;98960.59;4369616;32;33632;-82
2023/07/13 09:10:49;;;;;;;5.78;2.17;;;;;;;26.90;56.16;98969.06;4326621;32;33987;-83
2023/07/13 09:13:52;;;;;;;7.18;2.00;;;;;;;27.17;55.25;98958.66;4361913;32;34050;-83
2023/07/13 09:16:21;;;;;;;7.82;2.20;;;;;;;27.46;55.54;98953.41;4299432;33;34574;-85
2023/07/13 09:18:50;;;;;;;6.37;2.45;;;;;;;27.04;55.28;98954.94;4360298;32;34476;-84
2023/07/13 09:21:24;;;;;;;6.87;1.85;;;;;;;27.28;55.70;98950.03;4362248;32;33961;-83
2023/07/13 09:23:55;;;;;;;5.72;2.90;;;;;;;27.64;55.73;98960.28;4372534;32;33947;-83
2023/07/13 09:26:24;;;;;;;8.13;2.22;;;;;;;27.49;53.42;98947.03;4392361;32;34128;-84
2023/07/13 09:28:55;;;;;;;5.87;2.22;;;;;;;27.62;54.97;98956.87;4405938;32;32806;-85
2023/07/13 09:31:33;;;;;;;4.97;2.22;;;;;;;27.63;55.65;98965.72;4392055;32;34400;-88
2023/07/13 09:34:02;;;;;;;4.47;2.05;;;;;;;27.50;52.79;98970.91;4391876;32;33937;-83
2023/07/13 09:36:32;;;;;;;8.00;2.55;;;;;;;27.35;53.51;98966.50;4405662;32;35005;-83
2023/07/13 09:39:14;;;;;;;5.22;1.80;;;;;;;27.46;53.81;98969.38;4391930;32;33505;-82
2023/07/13 09:42:15;;;;;;;6.55;2.33;;;;;;;27.50;52.81;98970.91;4391651;32;33137;-87
2023/07/13 09:44:52;;;;;;;4.75;1.67;;;;;;;27.96;52.41;98989.47;4381790;32;34929;-85
2023/07/13 09:47:29;;;;;;;4.53;2.40;;;;;;;27.81;52.42;98974.44;4376733;32;33950;-84
2023/07/13 09:50:03;;;;;;;6.78;2.62;;;;;;;27.70;51.09;98972.37;4389671;32;33484;-84
2023/07/13 09:52:41;;;;;;;5.28;1.83;;;;;;;27.95;53.48;98985.09;4374187;32;34359;-83
2023/07/13 09:55:34;;;;;;;5.37;1.90;;;;;;;27.99;51.59;98983.94;4376777;32;34651;-84
2023/07/13 09:58:10;;;;;;;6.10;2.22;;;;;;;27.79;53.00;98981.66;4375701;32;33026;-84
2023/07/13 10:00:43;;;;;;;4.65;2.10;;;;;;;28.07;51.65;98984.34;4363143;32;33255;-83
2023/07/13 10:03:21;;;;;;;5.43;2.03;;;;;;;28.25;51.78;98990.31;4378653;32;34866;-82
2023/07/13 10:05:50;;;;;;;5.37;2.15;;;;;;;28.24;52.22;98993.94;4400312;32;34684;-83
2023/07/13 10:08:24;;;;;;;4.55;2.12;;;;;;;27.86;51.89;98993.66;4390179;32;35043;-83
2023/07/13 10:11:00;;;;;;;3.97;1.70;;;;;;;28.22;52.32;98995.84;4386424;32;33557;-84
2023/07/13 10:13:36;;;;;;;4.57;1.60;;;;;;;28.51;50.72;98986.03;4386936;32;32833;-83
2023/07/13 10:16:06;;;;;;;5.20;2.00;;;;;;;28.82;52.15;98984.06;4356247;32;33269;-84
2023/07/13 10:18:46;;;;;;;5.80;1.90;;;;;;;28.56;51.86;98989.28;4376191;32;34392;-86
2023/07/13 10:21:18;;;;;;;6.78;1.87;;;;;;;28.70;48.89;98985.72;4388619;32;33634;-85
2023/07/13 10:23:55;;;;;;;6.05;1.87;;;;;;;28.94;50.83;98987.75;4376737;32;34042;-87
2023/07/13 10:26:26;;;;;;;6.90;2.10;;;;;;;29.10;47.67;98991.16;4391317;32;34003;-85
2023/07/13 10:28:57;;;;;;;5.53;2.00;;;;;;;28.66;49.55;98994.03;4376555;32;34875;-85
2023/07/13 10:31:24;;;;;;;6.65;1.90;;;;;;;28.46;50.12;98992.63;4388858;32;33312;-84
2023/07/13 10:33:52;;;;;;;4.70;1.92;;;;;;;28.30;48.02;98992.72;4390392;32;33832;-84
2023/07/13 10:36:48;;;;;;;5.22;2.20;;;;;;;28.55;48.33;98992.88;4376569;32;33714;-81
2023/07/13 10:39:19;;;;;;;4.03;1.80;;;;;;;28.61;50.54;98989.84;4398284;32;34085;-83
2023/07/13 10:41:52;;;;;;;5.12;2.20;;;;;;;28.64;48.81;98979.91;4389937;32;33368;-83
2023/07/13 10:44:26;;;;;;;5.00;1.60;;;;;;;29.04;48.77;98979.06;4388400;32;34775;-85
2023/07/13 10:47:08;;;;;;;4.00;1.77;;;;;;;28.54;48.34;98982.34;4389340;32;34258;-84
2023/07/13 10:49:36;;;;;;;4.75;1.75;;;;;;;28.78;49.40;98990.56;4389722;32;33530;-83
2023/07/13 10:52:04;;;;;;;4.50;2.00;;;;;;;29.01;49.74;98992.59;4384774;32;171988;-87
2023/07/13 10:54:34;;;;;;;4.15;1.70;;;;;;;29.06;46.26;98993.19;4390173;32;33935;-84
2023/07/13 10:57:16;;;;;;;6.35;1.83;;;;;;;29.56;46.81;98990.75;4376486;32;34134;-86
2023/07/13 10:59:50;;;;;;;5.90;2.28;;;;;;;28.80;47.13;98986.00;4375618;32;33866;-84
2023/07/13 11:02:28;;;;;;;3.90;1.83;;;;;;;29.20;48.81;98978.03;4363432;32;33557;-84
2023/07/13 11:04:57;;;;;;;4.62;1.80;;;;;;;29.51;48.03;98983.03;4369183;32;34087;-84
2023/07/13 11:07:28;;;;;;;7.53;1.92;;;;;;;29.45;47.13;98977.25;4390015;32;34155;-83
2023/07/13 11:10:00;;;;;;;4.72;1.67;;;;;;;29.53;47.03;98991.78;4389208;32;33953;-85
2023/07/13 11:12:48;;;;;;;4.15;1.50;;;;;;;29.87;47.52;98978.81;4376090;32;33687;-84
2023/07/13 11:15:28;;;;;;;6.70;1.77;;;;;;;29.41;47.53;98979.28;4386696;32;33957;-83
2023/07/13 11:18:00;;;;;;;5.30;2.33;;;;;;;29.25;45.77;98990.16;4363378;32;33699;-85
2023/07/13 11:20:38;;;;;;;5.40;1.62;;;;;;;29.09;47.06;98984.09;4376543;32;33863;-86
2023/07/13 11:23:18;;;;;;;4.55;1.85;;;;;;;29.25;47.41;98987.47;4391106;32;34160;-83
2023/07/13 11:25:46;;;;;;;5.85;2.22;;;;;;;29.51;48.55;98976.81;4377694;32;33867;-85
2023/07/13 11:28:22;;;;;;;4.35;1.62;;;;;;;29.34;47.10;98967.28;4377794;32;34907;-84
2023/07/13 11:30:52;;;;;;;5.62;2.47;;;;;;;29.63;45.86;98970.69;4387752;32;34241;-86
2023/07/13 11:33:23;;;;;;;6.05;2.58;;;;;;;29.53;46.92;98974.91;4390884;32;33311;-84
2023/07/13 11:35:56;;;;;;;7.05;2.92;;;;;;;29.41;48.75;98981.94;4377837;32;34692;-84
2023/07/13 11:38:34;;;;;;;4.50;1.87;;;;;;;29.57;47.61;98977.31;4391444;32;34420;-83
2023/07/13 11:41:17;;;;;;;6.07;2.15;;;;;;;29.69;45.41;98980.09;4377779;32;32719;-85
2023/07/13 11:43:45;;;;;;;6.00;2.17;;;;;;;29.51;45.82;98972.37;4389985;32;34431;-85
2023/07/13 11:46:15;;;;;;;5.43;2.50;;;;;;;29.43;45.74;98972.00;4377717;32;33419;-85
2023/07/13 11:48:44;;;;;;;5.55;2.10;;;;;;;29.64;44.91;98976.88;4391375;32;34862;-83
2023/07/13 11:51:21;;;;;;;3.95;1.67;;;;;;;29.18;47.22;98988.00;4386861;32;34758;-85